Legend — WDF9316 — position and weather

sailwx.info

Track history (hours):
 
Tides and Currents Weather Stations Pressure Air Temp Water Temp Dewpoint Dewpoint Depression Visibility Wind Speed Wind Dir Waves Ship Positions

Legend

Owner: Crowley Maritime, Seattle, WA. More information available from US FCC via Universal Licensing System and Coast Guard Vessel Documentation Center.

Last reported at 2015-Mar-31 20:31 UTC. Time now 2015-Mar-31 20:44 UTC.
Position N 27°57' W 082°27'.

Length 212 m; draft 9.5 m.

Type: Towing. MMSI: 366709000.

Date/timePositionNaut miles runAvg speedWind from/ knotsBaromVisibWave heightAir tempDewpointWater temp
2015-Mar-31 20:31N 27°57' W 082°27'0 0.0
2015-Mar-31 19:31N 27°57' W 082°27'0 0.0
2015-Mar-31 18:31N 27°57' W 082°27'0 0.0
2015-Mar-31 17:31N 27°57' W 082°27'0 0.0
2015-Mar-31 16:31N 27°57' W 082°27'0 0.0
2015-Mar-31 15:31N 27°57' W 082°27'0 0.0
2015-Mar-31 14:31N 27°57' W 082°27'0 0.0
2015-Mar-31 13:31N 27°57' W 082°27'0 0.0
2015-Mar-31 12:31N 27°57' W 082°27'0 0.0
2015-Mar-31 11:31N 27°57' W 082°27'0 0.0
2015-Mar-31 10:31N 27°57' W 082°27'0 0.0
2015-Mar-31 09:31N 27°57' W 082°27'1 0.6
2015-Mar-31 08:34N 27°56' W 082°27'7 6.8
2015-Mar-31 07:34N 27°49' W 082°27'1110.7
2015-Mar-31 06:32N 27°41' W 082°35'2412.1
2015-Mar-31 04:31N 27°36' W 083°02'2110.6
2015-Mar-31 02:33N 27°16' W 083°08'  
2015-Mar-26 01:29N 29°47' W 090°01'9 9.5
2015-Mar-26 00:33N 29°55' W 089°56'1010.4
2015-Mar-25 23:33N 29°57' W 090°08'25 2.1
2015-Mar-25 12:05N 30°03' W 090°36'22 0.7
2015-Mar-24 05:25N 29°56' W 090°11'5 5.3
2015-Mar-24 04:32N 29°55' W 090°06'6 5.8
2015-Mar-24 03:32N 29°56' W 089°60'5 5.2
2015-Mar-24 02:30N 29°52' W 089°56'1 0.9
2015-Mar-24 01:25N 29°52' W 089°56'0 0.0
2015-Mar-23 23:19N 29°52' W 089°56'  
Track history (hours):
 
Tides and Currents Weather Stations Pressure Air Temp Water Temp Dewpoint Dewpoint Depression Visibility Wind Speed Wind Dir Waves Ship Positions

Legend

Owner: Crowley Maritime, Seattle, WA. More information available from US FCC via Universal Licensing System and Coast Guard Vessel Documentation Center.

Last reported at 2015-Mar-31 20:31 UTC. Time now 2015-Mar-31 20:44 UTC.
Position N 27°57' W 082°27'.

Length 212 m; draft 9.5 m.

Type: Towing. MMSI: 366709000.

Date/timePositionNaut miles runAvg speedWind from/ knotsBaromVisibWave heightAir tempDewpointWater temp
2015-Mar-31 20:31N 27°57' W 082°27'0 0.0
2015-Mar-31 19:31N 27°57' W 082°27'0 0.0
2015-Mar-31 18:31N 27°57' W 082°27'0 0.0
2015-Mar-31 17:31N 27°57' W 082°27'0 0.0
2015-Mar-31 16:31N 27°57' W 082°27'0 0.0
2015-Mar-31 15:31N 27°57' W 082°27'0 0.0
2015-Mar-31 14:31N 27°57' W 082°27'0 0.0
2015-Mar-31 13:31N 27°57' W 082°27'0 0.0
2015-Mar-31 12:31N 27°57' W 082°27'0 0.0
2015-Mar-31 11:31N 27°57' W 082°27'0 0.0
2015-Mar-31 10:31N 27°57' W 082°27'0 0.0
2015-Mar-31 09:31N 27°57' W 082°27'1 0.6
2015-Mar-31 08:34N 27°56' W 082°27'7 6.8
2015-Mar-31 07:34N 27°49' W 082°27'1110.7
2015-Mar-31 06:32N 27°41' W 082°35'2412.1
2015-Mar-31 04:31N 27°36' W 083°02'2110.6
2015-Mar-31 02:33N 27°16' W 083°08'  
2015-Mar-26 01:29N 29°47' W 090°01'9 9.5
2015-Mar-26 00:33N 29°55' W 089°56'1010.4
2015-Mar-25 23:33N 29°57' W 090°08'25 2.1
2015-Mar-25 12:05N 30°03' W 090°36'22 0.7
2015-Mar-24 05:25N 29°56' W 090°11'5 5.3
2015-Mar-24 04:32N 29°55' W 090°06'6 5.8
2015-Mar-24 03:32N 29°56' W 089°60'5 5.2
2015-Mar-24 02:30N 29°52' W 089°56'1 0.9
2015-Mar-24 01:25N 29°52' W 089°56'0 0.0
2015-Mar-23 23:19N 29°52' W 089°56'  

Dump ship's entire track history